Terminal Aerodrome Forecast
Issued by NWS Sioux Falls, SD

Home | Current Version | Previous Version | Text Only | Print | Product List | Glossary On
Versions: 1 2 3 4 5 6 7 8 9 10 11 12 13 14 15 16 17 18 19 20 21
000
FTUS43 KFSD 251513 AAB
TAFFSD
TAF AMD
KFSD 251513Z 2515/2612 36010KT P6SM OVC006
      TEMPO 2515/2517 4SM -SN BR OVC004
     FM252100 31007KT P6SM OVC012
     FM260200 VRB03KT P6SM BKN025 OVC080=

USA.gov is the U.S. government's official web portal to all federal, state and local government web resources and services.